Time;durP1;ratioP1;P1;durP2;ratioP2;P2;SDS_P1;SDS_P2;PMS_P1;PMS_P2;Temp;Humidity;BMP_temperature;BMP_pressure;BME280_temperature;BME280_humidity;BME280_pressure;Samples;Min_cycle;Max_cycle;Signal;HPM_P1;HPM_P2
2023/04/26 00:01:52;;;;;;;19.83;14.23;;;10.20;99.90;;;;;;5000986;28;20314;-65
2023/04/26 00:04:18;;;;;;;17.70;14.07;;;10.30;99.90;;;;;;5001167;28;20428;-65
2023/04/26 00:06:44;;;;;;;16.97;12.80;;;10.20;99.90;;;;;;5000700;28;20181;-65
2023/04/26 00:09:10;;;;;;;17.60;13.87;;;10.20;99.90;;;;;;5001628;28;20274;-65
2023/04/26 00:11:35;;;;;;;18.60;13.73;;;10.20;99.90;;;;;;4995009;28;20476;-65
2023/04/26 00:14:01;;;;;;;17.37;13.70;;;10.20;99.90;;;;;;4996693;28;20184;-65
2023/04/26 00:16:26;;;;;;;20.60;14.30;;;10.20;99.90;;;;;;4999175;28;20181;-65
2023/04/26 00:18:53;;;;;;;18.87;14.10;;;10.20;99.90;;;;;;4998078;28;20247;-65
2023/04/26 00:21:18;;;;;;;20.30;15.47;;;10.20;99.90;;;;;;5000116;28;20205;-65
2023/04/26 00:23:44;;;;;;;19.00;14.80;;;10.20;99.90;;;;;;4999116;28;20439;-65
2023/04/26 00:26:09;;;;;;;17.13;13.90;;;10.10;99.90;;;;;;4999807;28;20216;-65
2023/04/26 00:28:35;;;;;;;19.50;14.70;;;10.10;99.90;;;;;;4997221;28;20200;-65
2023/04/26 00:31:01;;;;;;;16.70;13.47;;;10.10;99.90;;;;;;4999220;28;20209;-65
2023/04/26 00:33:27;;;;;;;18.97;13.60;;;10.10;99.90;;;;;;4998283;28;20177;-65
2023/04/26 00:35:52;;;;;;;18.13;14.00;;;10.10;99.90;;;;;;4997421;28;20443;-65
2023/04/26 00:38:18;;;;;;;20.53;13.90;;;10.10;99.90;;;;;;4998390;28;20181;-65
2023/04/26 00:40:43;;;;;;;22.33;14.03;;;10.10;99.90;;;;;;4997835;28;20200;-65
2023/04/26 00:43:10;;;;;;;17.07;13.60;;;10.10;99.90;;;;;;4997875;28;20192;-65
2023/04/26 00:45:36;;;;;;;19.37;15.93;;;10.10;99.90;;;;;;4998336;28;20250;-65
2023/04/26 00:48:02;;;;;;;15.40;12.83;;;10.10;99.90;;;;;;5001035;28;20503;-65
2023/04/26 00:50:30;;;;;;;17.37;13.57;;;10.10;99.90;;;;;;5001134;28;20213;-65
2023/04/26 00:52:57;;;;;;;14.90;11.80;;;10.10;99.90;;;;;;5000612;28;20525;-65
2023/04/26 00:55:25;;;;;;;14.27;12.00;;;10.10;99.90;;;;;;5000101;28;20803;-65
2023/04/26 00:57:51;;;;;;;15.23;13.47;;;10.10;99.90;;;;;;4999443;28;20902;-65
2023/04/26 01:00:17;;;;;;;14.37;12.40;;;10.10;99.90;;;;;;5001266;28;20561;-65
2023/04/26 01:02:43;;;;;;;16.20;12.20;;;10.00;99.90;;;;;;4999424;28;20930;-65
2023/04/26 01:05:09;;;;;;;15.40;12.17;;;10.00;99.90;;;;;;4998417;28;20204;-65
2023/04/26 01:07:36;;;;;;;18.50;12.80;;;10.00;99.90;;;;;;4999669;28;20817;-65
2023/04/26 01:10:05;;;;;;;16.13;13.23;;;10.00;99.90;;;;;;4998745;28;20205;-65
2023/04/26 01:12:31;;;;;;;17.13;12.27;;;10.00;99.90;;;;;;4996573;28;20521;-65
2023/04/26 01:14:58;;;;;;;18.83;13.57;;;10.00;99.90;;;;;;4999726;28;21023;-65
2023/04/26 01:17:24;;;;;;;15.83;12.10;;;9.90;99.90;;;;;;4998343;28;20440;-65
2023/04/26 01:19:50;;;;;;;14.57;11.07;;;10.00;99.90;;;;;;4995135;28;21115;-65
2023/04/26 01:22:17;;;;;;;13.80;11.60;;;10.00;99.90;;;;;;5001488;28;20502;-65
2023/04/26 01:24:50;;;;;;;15.60;12.30;;;10.00;99.90;;;;;;5003585;28;20799;-65
2023/04/26 01:27:16;;;;;;;16.60;12.73;;;10.00;99.90;;;;;;5002242;28;21000;-65
2023/04/26 01:29:42;;;;;;;18.07;12.87;;;10.00;99.90;;;;;;5000106;28;20456;-65
2023/04/26 01:32:08;;;;;;;17.60;12.30;;;10.00;99.90;;;;;;5015647;28;20835;-66
2023/04/26 01:34:33;;;;;;;16.37;12.97;;;9.90;99.90;;;;;;5000971;28;20861;-66
2023/04/26 01:37:00;;;;;;;17.83;12.83;;;9.90;99.90;;;;;;4999678;28;20189;-66
2023/04/26 01:39:26;;;;;;;15.07;12.27;;;9.90;99.90;;;;;;5000902;28;20745;-66
2023/04/26 01:41:52;;;;;;;16.53;12.80;;;9.90;99.90;;;;;;5001350;28;20540;-66
2023/04/26 01:44:18;;;;;;;16.83;13.30;;;9.90;99.90;;;;;;5002745;28;20455;-66
2023/04/26 01:46:43;;;;;;;18.50;13.70;;;9.90;99.90;;;;;;5002646;28;20612;-66
2023/04/26 01:49:09;;;;;;;17.67;13.73;;;9.90;99.90;;;;;;5001856;28;20186;-66
2023/04/26 01:51:35;;;;;;;16.03;12.53;;;9.90;99.90;;;;;;5002102;28;20308;-66
2023/04/26 01:54:00;;;;;;;15.30;12.10;;;9.90;99.90;;;;;;4997092;28;20733;-66
2023/04/26 01:56:26;;;;;;;15.20;11.63;;;9.90;99.90;;;;;;5001758;28;20663;-66
2023/04/26 01:58:52;;;;;;;18.27;11.00;;;9.90;99.90;;;;;;5001118;28;20235;-66
2023/04/26 02:01:17;;;;;;;13.27;9.90;;;9.90;99.90;;;;;;5000524;28;20209;-66
2023/04/26 02:03:43;;;;;;;13.10;10.70;;;9.80;99.90;;;;;;5013280;28;20311;-66
2023/04/26 02:06:08;;;;;;;13.13;10.37;;;9.80;99.90;;;;;;4997727;28;20190;-66
2023/04/26 02:08:34;;;;;;;16.00;11.00;;;9.80;99.90;;;;;;4997327;28;20612;-66
2023/04/26 02:10:59;;;;;;;14.83;11.07;;;9.80;99.90;;;;;;5000673;28;20467;-66
2023/04/26 02:13:25;;;;;;;14.43;12.20;;;9.70;99.90;;;;;;5000373;28;20562;-66
2023/04/26 02:15:51;;;;;;;16.50;12.27;;;9.70;99.90;;;;;;5000613;28;20272;-66
2023/04/26 02:18:20;;;;;;;18.17;12.40;;;9.70;99.90;;;;;;5002621;28;20189;-66
2023/04/26 02:20:46;;;;;;;19.17;13.40;;;9.60;99.90;;;;;;5000192;28;20578;-66
2023/04/26 02:23:12;;;;;;;16.33;12.73;;;9.60;99.90;;;;;;4996876;28;20448;-66
2023/04/26 02:25:38;;;;;;;17.07;14.17;;;9.60;99.90;;;;;;4999306;28;20450;-66
2023/04/26 02:28:05;;;;;;;16.23;13.00;;;9.60;99.90;;;;;;4998661;28;21882;-66
2023/04/26 02:30:30;;;;;;;17.63;12.73;;;9.50;99.90;;;;;;4994151;28;20479;-66
2023/04/26 02:32:56;;;;;;;17.60;12.57;;;9.50;99.90;;;;;;4999292;28;20979;-66
2023/04/26 02:35:22;;;;;;;16.60;13.30;;;9.50;99.90;;;;;;5001722;28;20193;-66
2023/04/26 02:37:48;;;;;;;17.20;12.00;;;9.50;99.90;;;;;;4989079;28;20189;-66
2023/04/26 02:40:14;;;;;;;18.20;14.00;;;9.50;99.90;;;;;;4986795;28;20526;-66
2023/04/26 02:42:40;;;;;;;13.80;11.00;;;9.40;99.90;;;;;;4996965;28;20189;-66
2023/04/26 02:45:06;;;;;;;13.27;10.70;;;9.40;99.90;;;;;;5000540;28;20814;-66
2023/04/26 02:47:32;;;;;;;14.60;10.87;;;9.40;99.90;;;;;;4997897;28;20196;-66
2023/04/26 02:49:58;;;;;;;17.10;11.53;;;9.30;99.90;;;;;;5002162;28;20444;-66
2023/04/26 02:52:23;;;;;;;14.13;10.00;;;9.30;99.90;;;;;;4999779;28;20463;-66
2023/04/26 02:54:49;;;;;;;14.90;10.17;;;9.30;99.90;;;;;;5000228;28;20186;-66
2023/04/26 02:57:15;;;;;;;12.50;9.57;;;9.30;99.90;;;;;;5002434;28;20192;-66
2023/04/26 02:59:40;;;;;;;14.80;11.30;;;9.20;99.90;;;;;;5002825;28;20416;-66
2023/04/26 03:02:06;;;;;;;16.00;11.73;;;9.20;99.90;;;;;;5017821;28;20271;-66
2023/04/26 03:04:35;;;;;;;18.03;11.40;;;9.20;99.90;;;;;;4998579;28;20288;-66
2023/04/26 03:07:02;;;;;;;16.43;11.90;;;9.20;99.90;;;;;;4994502;28;20280;-66
2023/04/26 03:09:28;;;;;;;14.07;10.23;;;9.10;99.90;;;;;;4995521;28;21040;-66
2023/04/26 03:11:53;;;;;;;15.77;10.33;;;9.10;99.90;;;;;;4992988;28;20549;-66
2023/04/26 03:14:19;;;;;;;13.83;8.60;;;9.10;99.90;;;;;;4998056;28;20283;-66
2023/04/26 03:16:45;;;;;;;12.97;8.93;;;9.10;99.90;;;;;;5000249;28;20208;-66
2023/04/26 03:19:10;;;;;;;11.53;8.90;;;9.10;99.90;;;;;;5004287;28;20181;-66
2023/04/26 03:21:36;;;;;;;15.83;8.97;;;9.10;99.90;;;;;;5014886;28;20201;-67
2023/04/26 03:24:02;;;;;;;11.70;9.30;;;9.00;99.90;;;;;;5019904;28;20189;-66
2023/04/26 03:26:27;;;;;;;12.50;9.97;;;9.00;99.90;;;;;;4999010;28;20184;-66
2023/04/26 03:28:53;;;;;;;13.60;9.73;;;9.00;99.90;;;;;;5001989;28;20197;-66
2023/04/26 03:31:20;;;;;;;14.50;10.50;;;9.00;99.90;;;;;;4996159;28;20239;-66
2023/04/26 03:33:46;;;;;;;12.67;9.97;;;8.90;99.90;;;;;;4992380;28;20181;-64
2023/04/26 03:36:11;;;;;;;11.10;9.37;;;8.90;99.90;;;;;;4997352;28;20530;-66
2023/04/26 03:38:37;;;;;;;11.97;9.63;;;8.90;99.90;;;;;;5001066;28;20719;-66
2023/04/26 03:41:02;;;;;;;13.73;9.73;;;8.90;99.90;;;;;;4999158;28;20382;-66
2023/04/26 03:43:28;;;;;;;14.87;9.47;;;8.80;99.90;;;;;;5000344;28;20243;-66
2023/04/26 03:45:54;;;;;;;13.80;9.93;;;8.80;99.90;;;;;;4993597;28;20284;-66
2023/04/26 03:48:19;;;;;;;14.60;9.27;;;8.80;99.90;;;;;;4998105;28;20646;-66
2023/04/26 03:50:45;;;;;;;10.10;8.00;;;8.80;99.90;;;;;;4995533;28;20414;-66
2023/04/26 03:53:11;;;;;;;10.63;7.30;;;8.80;99.90;;;;;;4996050;28;20683;-66
2023/04/26 03:55:36;;;;;;;9.47;7.30;;;8.80;99.90;;;;;;4997014;28;20228;-66
2023/04/26 03:58:06;;;;;;;9.27;7.33;;;8.70;99.90;;;;;;5000851;28;20647;-66
2023/04/26 04:00:41;;;;;;;14.30;7.83;;;8.70;99.90;;;;;;5000596;28;20194;-66
2023/04/26 04:03:07;;;;;;;12.57;7.50;;;8.70;99.90;;;;;;4993098;28;20471;-66
2023/04/26 04:05:32;;;;;;;9.63;7.40;;;8.70;99.90;;;;;;4998265;28;20460;-66
2023/04/26 04:07:58;;;;;;;8.73;7.47;;;8.60;99.90;;;;;;5000361;28;20428;-66
2023/04/26 04:10:24;;;;;;;8.70;6.50;;;8.60;99.90;;;;;;4996271;28;20209;-66
2023/04/26 04:12:51;;;;;;;9.73;7.80;;;8.60;99.90;;;;;;4997825;28;20209;-66
2023/04/26 04:15:17;;;;;;;13.77;9.00;;;8.60;99.90;;;;;;5001378;28;20243;-66
2023/04/26 04:17:43;;;;;;;11.50;9.40;;;8.60;99.90;;;;;;4999326;28;20413;-66
2023/04/26 04:20:09;;;;;;;14.03;10.50;;;8.60;99.90;;;;;;4999905;28;21612;-66
2023/04/26 04:22:35;;;;;;;20.30;12.43;;;8.60;99.90;;;;;;4999716;28;20173;-66
2023/04/26 04:25:03;;;;;;;13.47;10.27;;;8.50;99.90;;;;;;4997802;28;20444;-66
2023/04/26 04:27:29;;;;;;;15.40;11.03;;;8.50;99.90;;;;;;5002336;28;20691;-66
2023/04/26 04:29:54;;;;;;;15.47;11.10;;;8.50;99.90;;;;;;4999706;28;20494;-66
2023/04/26 04:32:22;;;;;;;15.47;11.50;;;8.40;99.90;;;;;;5002376;28;20717;-66
2023/04/26 04:34:48;;;;;;;16.47;11.27;;;8.40;99.90;;;;;;5000852;28;20616;-66
2023/04/26 04:37:13;;;;;;;18.00;11.80;;;8.40;99.90;;;;;;5001608;28;20534;-66
2023/04/26 04:39:39;;;;;;;17.53;12.37;;;8.40;99.90;;;;;;4999769;28;20185;-66
2023/04/26 04:42:04;;;;;;;18.60;11.90;;;8.40;99.90;;;;;;5002083;28;20283;-65
2023/04/26 04:44:31;;;;;;;14.37;10.13;;;8.40;99.90;;;;;;5000341;28;20625;-66
2023/04/26 04:46:57;;;;;;;15.80;10.63;;;8.40;99.90;;;;;;4996971;28;20188;-66
2023/04/26 04:49:23;;;;;;;20.10;11.47;;;8.40;99.90;;;;;;5002854;28;20431;-65
2023/04/26 04:51:49;;;;;;;15.50;11.10;;;8.40;99.90;;;;;;5003393;28;20193;-66
2023/04/26 04:54:16;;;;;;;17.63;12.90;;;8.40;99.90;;;;;;5004220;28;20547;-66
2023/04/26 04:56:43;;;;;;;13.90;11.03;;;8.40;99.90;;;;;;5005042;28;20511;-66
2023/04/26 04:59:09;;;;;;;15.60;12.07;;;8.40;99.90;;;;;;5004929;28;20908;-66
2023/04/26 05:01:37;;;;;;;17.67;12.67;;;8.40;99.90;;;;;;5004008;28;20979;-66
2023/04/26 05:04:04;;;;;;;16.50;11.97;;;8.40;99.90;;;;;;5002851;28;20986;-66
2023/04/26 05:06:33;;;;;;;16.37;13.17;;;8.40;99.90;;;;;;5004405;28;20440;-66
2023/04/26 05:09:00;;;;;;;18.77;12.73;;;8.40;99.90;;;;;;5004085;28;20493;-65
2023/04/26 05:11:25;;;;;;;15.90;12.60;;;8.40;99.90;;;;;;5000952;28;20993;-65
2023/04/26 05:13:51;;;;;;;16.63;12.93;;;8.40;99.90;;;;;;5001172;28;20474;-66
2023/04/26 05:16:17;;;;;;;19.00;12.87;;;8.40;99.90;;;;;;5006089;28;20181;-66
2023/04/26 05:18:42;;;;;;;18.87;12.57;;;8.40;99.90;;;;;;4997810;28;20185;-65
2023/04/26 05:21:08;;;;;;;16.03;11.97;;;8.40;99.90;;;;;;5001959;28;20205;-65
2023/04/26 05:23:33;;;;;;;15.70;11.33;;;8.40;99.90;;;;;;5003743;28;20193;-66
2023/04/26 05:26:06;;;;;;;15.77;10.87;;;8.50;99.90;;;;;;5001844;28;20536;-65
2023/04/26 05:28:33;;;;;;;13.00;11.37;;;8.50;99.90;;;;;;5003943;28;20222;-65
2023/04/26 05:31:00;;;;;;;17.53;12.23;;;8.50;99.90;;;;;;4998991;28;20989;-65
2023/04/26 05:33:29;;;;;;;16.33;10.70;;;8.50;99.90;;;;;;5002653;28;20463;-66
2023/04/26 05:35:56;;;;;;;16.53;11.63;;;8.50;99.90;;;;;;4998389;28;20463;-65
2023/04/26 05:38:22;;;;;;;16.70;10.70;;;8.50;99.90;;;;;;5002991;28;20432;-65
2023/04/26 05:40:48;;;;;;;14.73;10.03;;;8.50;99.90;;;;;;5001966;28;20837;-65
2023/04/26 05:43:14;;;;;;;14.53;10.53;;;8.60;99.90;;;;;;4996674;28;20448;-65
2023/04/26 05:45:40;;;;;;;16.70;10.20;;;8.60;99.90;;;;;;4999584;28;20616;-65
2023/04/26 05:48:05;;;;;;;11.90;8.77;;;8.60;99.90;;;;;;5000972;28;20213;-65
2023/04/26 05:50:31;;;;;;;10.33;7.40;;;8.60;99.90;;;;;;5004704;28;21846;-66
2023/04/26 05:52:57;;;;;;;10.17;6.77;;;8.70;99.90;;;;;;5000411;28;20213;-65
2023/04/26 05:55:22;;;;;;;10.33;6.73;;;8.70;99.90;;;;;;5003667;28;20199;-65
2023/04/26 05:57:48;;;;;;;9.60;6.53;;;8.70;99.90;;;;;;5003825;28;20643;-65
2023/04/26 06:00:14;;;;;;;11.63;7.03;;;8.70;99.90;;;;;;4993953;28;20327;-65
2023/04/26 06:02:40;;;;;;;9.00;6.63;;;8.70;99.90;;;;;;4996366;28;20915;-65
2023/04/26 06:05:07;;;;;;;8.33;6.40;;;8.70;99.90;;;;;;4996210;28;20444;-65
2023/04/26 06:07:32;;;;;;;12.10;6.57;;;8.80;99.90;;;;;;4995731;28;20446;-65
2023/04/26 06:10:01;;;;;;;9.17;7.00;;;8.80;99.90;;;;;;4998301;28;20440;-65
2023/04/26 06:12:26;;;;;;;12.73;6.90;;;8.80;99.90;;;;;;4999603;28;20525;-65
2023/04/26 06:14:52;;;;;;;9.33;6.90;;;8.80;99.90;;;;;;5002025;28;20784;-65
2023/04/26 06:17:18;;;;;;;8.67;6.77;;;8.80;99.90;;;;;;5000586;28;20177;-65
2023/04/26 06:19:43;;;;;;;12.20;7.57;;;8.90;99.90;;;;;;5000155;28;20381;-65
2023/04/26 06:22:09;;;;;;;10.20;7.73;;;8.90;99.90;;;;;;5002205;28;20220;-65
2023/04/26 06:24:34;;;;;;;14.60;8.83;;;8.90;99.90;;;;;;5001601;28;20272;-65
2023/04/26 06:27:00;;;;;;;11.70;7.80;;;9.00;99.90;;;;;;4998968;28;20239;-65
2023/04/26 06:29:27;;;;;;;16.17;8.00;;;9.00;99.90;;;;;;4999320;28;20208;-65
2023/04/26 06:31:52;;;;;;;14.73;7.93;;;9.00;99.90;;;;;;5001235;28;20621;-65
2023/04/26 06:34:18;;;;;;;12.90;8.20;;;9.00;99.90;;;;;;5001112;28;20462;-65
2023/04/26 06:36:44;;;;;;;9.83;7.70;;;9.10;99.90;;;;;;4999833;28;20689;-65
2023/04/26 06:39:10;;;;;;;12.23;8.30;;;9.10;99.90;;;;;;5002010;28;20231;-65
2023/04/26 06:41:36;;;;;;;12.97;7.97;;;9.10;99.90;;;;;;4999574;28;20950;-65
2023/04/26 06:44:01;;;;;;;13.57;9.00;;;9.20;99.90;;;;;;5002161;28;20187;-65
2023/04/26 06:46:27;;;;;;;10.17;7.97;;;9.20;99.90;;;;;;5000007;28;20268;-65
2023/04/26 06:48:54;;;;;;;15.93;8.40;;;9.20;99.90;;;;;;5001808;28;20197;-65
2023/04/26 06:51:19;;;;;;;9.73;8.10;;;9.20;99.90;;;;;;5002679;28;20203;-65
2023/04/26 06:53:45;;;;;;;10.90;7.50;;;9.20;99.90;;;;;;5003723;28;20436;-65
2023/04/26 06:56:10;;;;;;;13.37;8.43;;;9.20;99.90;;;;;;5002729;28;20193;-65
2023/04/26 06:58:36;;;;;;;13.03;6.93;;;9.30;99.90;;;;;;5003922;28;20185;-65
2023/04/26 07:01:02;;;;;;;9.60;7.80;;;9.30;99.90;;;;;;4998500;28;20572;-66
2023/04/26 07:03:28;;;;;;;14.13;8.47;;;9.40;99.90;;;;;;4996756;28;20189;-67
2023/04/26 07:05:55;;;;;;;13.03;9.03;;;9.40;99.90;;;;;;5000348;28;20937;-66
2023/04/26 07:08:20;;;;;;;12.80;9.03;;;9.50;99.90;;;;;;4998442;28;20667;-65
2023/04/26 07:10:46;;;;;;;11.03;8.70;;;9.50;99.90;;;;;;4996551;28;20468;-66
2023/04/26 07:13:11;;;;;;;13.67;8.90;;;9.50;99.90;;;;;;5003727;28;20209;-66
2023/04/26 07:15:37;;;;;;;12.93;8.53;;;9.60;99.90;;;;;;4998850;28;20185;-65
2023/04/26 07:18:03;;;;;;;14.70;8.97;;;9.60;99.90;;;;;;4994409;28;20873;-65
2023/04/26 07:20:28;;;;;;;14.83;9.57;;;9.70;99.90;;;;;;4997958;28;20311;-65
2023/04/26 07:22:54;;;;;;;13.93;8.60;;;9.70;99.90;;;;;;5001134;28;20189;-65
2023/04/26 07:25:19;;;;;;;13.20;8.93;;;9.70;99.90;;;;;;5003928;28;20560;-66
2023/04/26 07:27:45;;;;;;;13.20;9.57;;;9.80;99.90;;;;;;5004008;28;20173;-65
2023/04/26 07:30:11;;;;;;;13.13;8.00;;;9.80;99.90;;;;;;5000542;28;20792;-66
2023/04/26 07:32:36;;;;;;;13.90;8.90;;;9.90;99.90;;;;;;4999040;28;20242;-66
2023/04/26 07:35:06;;;;;;;14.90;7.93;;;9.90;99.90;;;;;;5001006;28;20296;-66
2023/04/26 07:37:32;;;;;;;9.13;7.03;;;10.00;99.90;;;;;;4999869;28;20272;-65
2023/04/26 07:39:58;;;;;;;16.47;8.77;;;10.10;99.90;;;;;;4996310;28;20573;-65
2023/04/26 07:42:24;;;;;;;10.90;7.03;;;10.10;99.90;;;;;;5001769;28;20953;-65
2023/04/26 07:44:49;;;;;;;15.60;7.47;;;10.10;99.90;;;;;;5000883;28;20189;-65
2023/04/26 07:47:15;;;;;;;10.87;7.00;;;10.20;99.90;;;;;;4996268;28;20200;-65
2023/04/26 07:49:41;;;;;;;8.60;7.20;;;10.30;99.90;;;;;;4995162;28;20223;-66
2023/04/26 07:52:09;;;;;;;8.03;7.20;;;10.40;99.90;;;;;;5001046;28;20201;-66
2023/04/26 07:54:35;;;;;;;9.60;7.20;;;10.40;99.90;;;;;;5000405;28;20181;-66
2023/04/26 07:57:01;;;;;;;9.30;6.90;;;10.50;99.90;;;;;;4999082;28;20482;-66
2023/04/26 07:59:27;;;;;;;10.57;7.67;;;10.50;99.90;;;;;;5000477;28;20432;-66
2023/04/26 08:01:52;;;;;;;9.57;7.03;;;10.50;99.90;;;;;;4998772;28;20255;-66
2023/04/26 08:04:31;;;;;;;10.60;7.57;;;10.50;99.90;;;;;;4998374;28;20220;-66
2023/04/26 08:06:56;;;;;;;10.87;7.70;;;10.60;99.90;;;;;;4996067;28;20695;-66
2023/04/26 08:09:22;;;;;;;12.47;7.87;;;10.70;99.90;;;;;;4998930;28;20448;-66
2023/04/26 08:11:47;;;;;;;14.50;8.03;;;10.70;99.90;;;;;;4997862;28;20580;-66
2023/04/26 08:14:13;;;;;;;10.63;7.50;;;10.70;99.90;;;;;;4998163;28;20690;-65
2023/04/26 08:16:39;;;;;;;12.20;7.97;;;10.80;99.90;;;;;;4995486;28;20211;-65
2023/04/26 08:19:05;;;;;;;8.77;6.60;;;10.80;99.90;;;;;;5000944;28;20288;-65
2023/04/26 08:21:30;;;;;;;9.77;6.77;;;10.90;99.90;;;;;;4999963;28;20563;-65
2023/04/26 08:23:56;;;;;;;12.00;8.00;;;10.90;99.90;;;;;;4998278;28;20189;-65
2023/04/26 08:26:21;;;;;;;12.17;7.67;;;10.90;99.90;;;;;;5000559;28;20173;-65
2023/04/26 08:28:47;;;;;;;8.80;7.10;;;11.00;99.90;;;;;;5000046;28;20189;-66
2023/04/26 08:31:12;;;;;;;12.40;6.80;;;11.10;99.90;;;;;;5000257;28;20205;-65
2023/04/26 08:33:38;;;;;;;10.03;6.50;;;11.10;99.90;;;;;;4999633;28;20312;-65
2023/04/26 08:36:04;;;;;;;8.30;6.50;;;11.10;99.90;;;;;;4998774;28;20181;-66
2023/04/26 08:38:31;;;;;;;13.97;7.10;;;11.20;99.90;;;;;;4999619;28;20690;-66
2023/04/26 08:41:00;;;;;;;11.33;6.80;;;11.30;99.90;;;;;;4999054;28;20292;-65
2023/04/26 08:43:29;;;;;;;10.40;5.90;;;11.30;99.90;;;;;;5000861;28;20439;-65
2023/04/26 08:45:58;;;;;;;8.23;5.80;;;11.30;99.90;;;;;;4998259;28;20455;-65
2023/04/26 08:48:26;;;;;;;11.50;6.00;;;11.40;99.90;;;;;;5001108;28;20503;-66
2023/04/26 08:50:53;;;;;;;13.60;6.47;;;11.50;99.90;;;;;;4998688;28;20854;-65
2023/04/26 08:53:20;;;;;;;10.93;6.37;;;11.60;99.90;;;;;;4999365;28;20452;-65
2023/04/26 08:55:49;;;;;;;8.43;5.50;;;11.80;99.90;;;;;;4999052;28;20416;-66
2023/04/26 08:58:16;;;;;;;11.57;6.93;;;11.90;99.90;;;;;;5000798;28;20950;-66
2023/04/26 09:00:47;;;;;;;7.63;6.20;;;12.00;99.90;;;;;;4999252;28;20437;-65
2023/04/26 09:03:13;;;;;;;7.43;5.87;;;12.20;99.90;;;;;;5001238;28;20436;-65
2023/04/26 09:05:42;;;;;;;10.03;6.23;;;12.30;99.90;;;;;;4996537;28;20446;-65
2023/04/26 09:08:12;;;;;;;6.90;6.20;;;12.50;99.90;;;;;;4998684;28;20463;-66
2023/04/26 09:10:37;;;;;;;9.80;5.97;;;12.50;99.90;;;;;;4999653;28;20884;-66
2023/04/26 09:13:03;;;;;;;11.57;7.10;;;12.60;99.90;;;;;;4998190;28;20498;-66
2023/04/26 09:15:29;;;;;;;7.13;5.87;;;12.70;99.90;;;;;;4999841;28;20204;-66
2023/04/26 09:17:54;;;;;;;11.20;5.80;;;12.70;99.90;;;;;;4998179;28;20204;-65
2023/04/26 09:20:24;;;;;;;10.90;6.30;;;12.70;99.90;;;;;;4999568;28;20201;-66
2023/04/26 09:23:03;;;;;;;7.10;5.80;;;12.80;99.90;;;;;;4999720;28;20279;-65
2023/04/26 09:25:30;;;;;;;8.07;5.77;;;13.00;99.90;;;;;;5000899;28;20424;-65
2023/04/26 09:27:56;;;;;;;9.43;5.53;;;13.10;99.90;;;;;;4999309;28;20448;-65
2023/04/26 09:30:22;;;;;;;9.37;6.20;;;13.20;99.90;;;;;;4999296;28;20878;-66
2023/04/26 09:32:55;;;;;;;12.33;6.57;;;13.20;99.90;;;;;;4999067;28;20514;-66
2023/04/26 09:35:24;;;;;;;6.83;5.53;;;13.30;99.90;;;;;;4998941;28;20428;-66
2023/04/26 09:38:04;;;;;;;8.77;6.17;;;13.40;99.90;;;;;;5000690;28;20741;-66
2023/04/26 09:40:35;;;;;;;6.17;5.20;;;13.50;99.90;;;;;;5003588;28;20510;-66
2023/04/26 09:43:11;;;;;;;8.33;5.80;;;13.50;99.90;;;;;;5000837;28;20435;-66
2023/04/26 09:45:57;;;;;;;9.93;5.77;;;13.50;99.90;;;;;;5002424;28;20701;-66
2023/04/26 09:48:33;;;;;;;10.40;5.50;;;13.40;99.90;;;;;;5003742;28;20948;-66
2023/04/26 09:51:02;;;;;;;8.20;4.90;;;13.60;99.90;;;;;;5001881;28;20822;-66
2023/04/26 09:53:33;;;;;;;6.10;5.00;;;13.70;99.90;;;;;;5003079;28;20474;-66
2023/04/26 09:56:07;;;;;;;7.50;5.07;;;13.80;99.90;;;;;;5001327;28;20464;-66
2023/04/26 09:58:33;;;;;;;6.03;4.90;;;14.00;99.90;;;;;;5003610;28;20457;-66
2023/04/26 10:00:59;;;;;;;6.77;4.90;;;14.00;99.90;;;;;;5002241;28;20493;-66
2023/04/26 10:03:25;;;;;;;6.30;4.97;;;14.10;99.90;;;;;;5002122;28;20444;-66
2023/04/26 10:05:52;;;;;;;9.03;4.10;;;14.20;99.90;;;;;;5000122;28;20426;-66
2023/04/26 10:08:18;;;;;;;7.63;4.57;;;14.30;99.90;;;;;;5001158;28;20436;-67
2023/04/26 10:10:44;;;;;;;5.47;4.80;;;14.50;99.90;;;;;;5003585;28;20463;-66
2023/04/26 10:13:11;;;;;;;5.63;4.40;;;14.60;97.80;;;;;;5001776;28;20219;-66
2023/04/26 10:15:39;;;;;;;8.00;5.50;;;14.50;97.00;;;;;;5003689;28;20514;-66
2023/04/26 10:18:04;;;;;;;8.00;4.70;;;14.60;96.90;;;;;;5003384;28;20517;-66
2023/04/26 10:20:30;;;;;;;7.73;4.67;;;14.80;96.90;;;;;;5003570;28;20989;-66
2023/04/26 10:23:01;;;;;;;6.77;4.70;;;15.20;96.40;;;;;;5000984;28;20192;-66
2023/04/26 10:25:38;;;;;;;5.53;4.20;;;15.40;96.30;;;;;;5004791;28;20996;-66
2023/04/26 10:28:04;;;;;;;7.33;4.57;;;15.60;96.30;;;;;;5000580;28;20468;-66
2023/04/26 10:30:31;;;;;;;10.33;5.03;;;15.70;95.40;;;;;;5003509;28;20448;-66
2023/04/26 10:32:56;;;;;;;6.30;4.50;;;15.80;95.30;;;;;;5002846;28;20467;-66
2023/04/26 10:35:32;;;;;;;5.73;5.13;;;16.00;95.10;;;;;;5003497;28;20768;-66
2023/04/26 10:38:00;;;;;;;6.53;4.47;;;16.10;94.70;;;;;;5000478;28;20769;-66
2023/04/26 10:40:29;;;;;;;7.83;4.73;;;16.20;94.70;;;;;;5002712;28;20832;-66
2023/04/26 10:43:10;;;;;;;10.73;4.57;;;16.40;94.00;;;;;;4998609;28;20436;-66
2023/04/26 10:45:37;;;;;;;6.37;4.30;;;16.40;92.20;;;;;;5002580;28;20415;-66
2023/04/26 10:48:19;;;;;;;6.37;4.30;;;16.60;92.60;;;;;;4999996;28;20527;-66
2023/04/26 10:51:11;;;;;;;7.87;5.10;;;16.80;91.30;;;;;;4999607;28;20982;-66
2023/04/26 10:53:46;;;;;;;7.60;4.30;;;16.90;90.30;;;;;;4995521;28;20453;-67
2023/04/26 10:56:26;;;;;;;4.63;4.00;;;16.90;90.00;;;;;;5004009;28;20188;-66
2023/04/26 10:59:18;;;;;;;6.30;4.27;;;17.10;90.10;;;;;;5000063;28;20423;-66
2023/04/26 11:01:44;;;;;;;5.70;4.67;;;17.20;89.10;;;;;;5002482;28;20493;-66
2023/04/26 11:04:10;;;;;;;5.83;4.40;;;17.40;87.50;;;;;;4998777;28;20472;-66
2023/04/26 11:06:56;;;;;;;5.77;4.57;;;17.50;85.80;;;;;;5017138;28;20463;-67
2023/04/26 11:09:47;;;;;;;6.80;5.20;;;17.40;83.20;;;;;;5001396;28;20920;-67
2023/04/26 11:12:14;;;;;;;6.00;4.13;;;17.60;81.50;;;;;;5000525;28;20456;-67
2023/04/26 11:14:44;;;;;;;5.17;4.37;;;17.80;81.40;;;;;;5000662;28;20428;-67
2023/04/26 11:17:11;;;;;;;6.60;4.90;;;17.70;78.00;;;;;;4999726;28;20902;-67
2023/04/26 11:19:37;;;;;;;7.77;5.10;;;17.60;77.90;;;;;;5000033;28;20428;-66
2023/04/26 11:22:06;;;;;;;6.43;4.37;;;17.40;78.10;;;;;;4997861;28;20452;-66
2023/04/26 11:24:35;;;;;;;5.53;4.10;;;17.60;79.40;;;;;;4994147;28;20181;-66
2023/04/26 11:27:06;;;;;;;6.63;4.30;;;17.90;78.80;;;;;;5015509;28;20801;-66
2023/04/26 11:29:32;;;;;;;5.27;3.93;;;18.00;76.60;;;;;;5000017;28;20576;-66
2023/04/26 11:31:58;;;;;;;7.67;4.67;;;18.20;76.70;;;;;;4994740;28;20991;-66
2023/04/26 11:34:34;;;;;;;6.63;4.57;;;18.30;77.20;;;;;;5002075;28;20180;-66
2023/04/26 11:37:01;;;;;;;10.13;4.47;;;18.50;77.60;;;;;;4996603;28;20270;-66
2023/04/26 11:39:27;;;;;;;6.70;4.20;;;18.70;77.40;;;;;;4993543;28;20925;-66
2023/04/26 11:42:07;;;;;;;4.60;3.87;;;18.90;76.10;;;;;;5000636;28;20432;-66
2023/04/26 11:44:33;;;;;;;7.13;3.93;;;19.00;75.00;;;;;;4997799;28;20659;-67
2023/04/26 11:47:03;;;;;;;9.27;4.60;;;19.30;75.80;;;;;;4999255;28;20823;-66
2023/04/26 11:49:30;;;;;;;6.67;4.40;;;19.60;73.90;;;;;;5001656;28;20509;-67
2023/04/26 11:51:56;;;;;;;6.70;4.40;;;19.70;69.20;;;;;;4999744;28;20467;-67
2023/04/26 11:54:33;;;;;;;7.27;4.60;;;19.90;67.00;;;;;;5001054;28;20933;-67
2023/04/26 11:56:59;;;;;;;8.90;4.83;;;20.10;65.80;;;;;;5000120;28;20177;-67
2023/04/26 11:59:28;;;;;;;7.10;4.50;;;20.00;63.50;;;;;;5000608;28;20532;-65
2023/04/26 12:02:00;;;;;;;6.73;4.00;;;19.80;62.30;;;;;;4998073;28;20462;-65
2023/04/26 12:04:28;;;;;;;9.57;4.83;;;19.70;63.20;;;;;;4997851;28;20440;-65
2023/04/26 12:06:54;;;;;;;7.43;4.63;;;19.90;63.80;;;;;;4999348;28;20527;-65
2023/04/26 12:09:30;;;;;;;15.80;5.00;;;20.30;63.10;;;;;;4998926;28;20792;-65
2023/04/26 12:12:07;;;;;;;6.37;4.60;;;20.40;61.80;;;;;;5000402;28;20548;-66
2023/04/26 12:14:39;;;;;;;5.03;4.03;;;20.40;60.50;;;;;;4999898;28;20452;-66
2023/04/26 12:17:06;;;;;;;5.13;4.13;;;20.30;59.20;;;;;;4998782;28;20527;-66
2023/04/26 12:19:35;;;;;;;8.60;5.30;;;20.60;59.50;;;;;;4998106;28;20436;-66
2023/04/26 12:22:02;;;;;;;11.77;5.13;;;21.10;59.50;;;;;;4992754;28;20543;-66
2023/04/26 12:24:33;;;;;;;5.50;4.20;;;21.20;58.80;;;;;;4999075;28;20458;-66
2023/04/26 12:26:59;;;;;;;6.50;4.40;;;21.20;57.40;;;;;;4999649;28;20412;-66
2023/04/26 12:29:25;;;;;;;7.33;4.57;;;21.00;56.90;;;;;;5000590;28;20505;-66
2023/04/26 12:31:50;;;;;;;7.23;5.10;;;20.60;55.30;;;;;;5000500;28;20590;-65
2023/04/26 12:34:17;;;;;;;6.23;4.20;;;20.60;56.60;;;;;;5000601;28;20563;-66
2023/04/26 12:36:43;;;;;;;5.53;4.00;;;20.90;56.90;;;;;;4994404;28;20531;-66
2023/04/26 12:39:12;;;;;;;4.87;4.13;;;21.20;56.70;;;;;;5000462;28;20647;-66
2023/04/26 12:41:38;;;;;;;4.40;3.97;;;20.90;56.00;;;;;;5000513;28;20220;-66